createdAt,value
2023-02-03T00:00:53.534Z,99.99
2023-02-03T00:01:53.539Z,99.99
2023-02-03T00:02:53.426Z,99.99
2023-02-03T00:03:53.383Z,99.99
2023-02-03T00:04:53.370Z,99.99
2023-02-03T00:05:53.376Z,99.99
2023-02-03T00:06:53.391Z,99.99
2023-02-03T00:07:53.396Z,99.99
2023-02-03T00:08:53.392Z,99.99
2023-02-03T00:09:53.389Z,99.99
2023-02-03T00:10:53.377Z,99.99
2023-02-03T00:11:53.337Z,99.99
2023-02-03T00:12:53.342Z,99.99
2023-02-03T00:13:53.332Z,99.99
2023-02-03T00:14:53.331Z,99.99
2023-02-03T00:15:53.318Z,99.99
2023-02-03T00:16:53.343Z,99.99
2023-02-03T00:17:53.344Z,99.99
2023-02-03T00:18:53.328Z,99.99
2023-02-03T00:19:53.350Z,99.99
2023-02-03T00:20:53.331Z,99.99
2023-02-03T00:21:53.283Z,99.99
2023-02-03T00:22:53.305Z,99.99
2023-02-03T00:23:53.377Z,99.99
2023-02-03T00:24:53.431Z,99.99
2023-02-03T00:25:53.365Z,99.99
2023-02-03T00:26:53.542Z,99.99
2023-02-03T00:27:53.327Z,99.99
2023-02-03T00:28:53.251Z,99.99
2023-02-03T00:29:53.245Z,99.99
2023-02-03T00:30:53.256Z,99.99
2023-02-03T00:31:53.301Z,99.99
2023-02-03T00:32:53.238Z,99.99
2023-02-03T00:33:53.239Z,99.99
2023-02-03T00:34:53.226Z,99.99
2023-02-03T00:35:53.241Z,99.99
2023-02-03T00:36:53.200Z,99.99
2023-02-03T00:37:53.195Z,99.99
2023-02-03T00:38:53.207Z,99.99
2023-02-03T00:39:53.195Z,99.99
2023-02-03T00:40:53.196Z,99.99
2023-02-03T00:41:53.213Z,99.99
2023-02-03T00:42:53.189Z,99.99
2023-02-03T00:43:53.166Z,99.99
2023-02-03T00:44:53.160Z,99.99
2023-02-03T00:45:53.203Z,99.99
2023-02-03T00:46:53.191Z,99.99
2023-02-03T00:47:53.150Z,99.99
2023-02-03T00:48:53.152Z,99.99
2023-02-03T00:49:53.149Z,99.99
2023-02-03T00:50:53.166Z,99.99
2023-02-03T00:51:53.133Z,99.99
2023-02-03T00:52:53.135Z,99.99
2023-02-03T00:53:53.126Z,99.99
2023-02-03T00:54:53.108Z,99.99
2023-02-03T00:55:53.132Z,99.99
2023-02-03T00:56:53.111Z,99.99
2023-02-03T00:57:53.117Z,99.99
2023-02-03T00:58:53.098Z,99.99
2023-02-03T00:59:53.089Z,99.99
2023-02-03T01:00:53.121Z,99.99
2023-02-03T01:01:53.127Z,99.99
2023-02-03T01:02:53.104Z,99.99
2023-02-03T01:03:53.067Z,99.99
2023-02-03T01:04:53.083Z,99.99
2023-02-03T01:05:53.074Z,99.99
2023-02-03T01:06:53.065Z,99.99
2023-02-03T01:07:53.078Z,99.99
2023-02-03T01:08:53.088Z,99.99
2023-02-03T01:09:53.035Z,99.99
2023-02-03T01:10:53.031Z,99.99
2023-02-03T01:11:53.028Z,99.99
2023-02-03T01:12:53.029Z,99.99
2023-02-03T01:13:53.029Z,99.99
2023-02-03T01:14:53.035Z,99.99
2023-02-03T01:15:53.034Z,99.99
2023-02-03T01:16:53.113Z,99.99
2023-02-03T01:17:53.008Z,99.99
2023-02-03T01:18:53.003Z,99.99
2023-02-03T01:19:52.985Z,99.99
2023-02-03T01:20:52.985Z,99.99
2023-02-03T01:21:52.996Z,99.99
2023-02-03T01:22:52.990Z,99.99
2023-02-03T01:23:53.053Z,99.99
2023-02-03T01:24:52.956Z,99.99
2023-02-03T01:25:52.958Z,99.99
2023-02-03T01:26:52.957Z,99.99
2023-02-03T01:27:52.972Z,99.99
2023-02-03T01:28:52.965Z,99.99
2023-02-03T01:29:52.972Z,99.99
2023-02-03T01:30:53.097Z,99.99
2023-02-03T01:31:53.066Z,99.99
2023-02-03T01:32:52.945Z,99.99
2023-02-03T01:33:52.980Z,99.99
2023-02-03T01:34:52.925Z,99.99
2023-02-03T01:35:52.927Z,99.99
2023-02-03T01:36:52.931Z,99.99
2023-02-03T01:37:52.912Z,99.99
2023-02-03T01:38:52.997Z,99.99
2023-02-03T01:39:52.948Z,99.99
2023-02-03T01:40:52.950Z,99.99
2023-02-03T01:41:52.892Z,99.99
2023-02-03T01:42:52.886Z,99.99
2023-02-03T01:43:53.241Z,99.99
2023-02-03T01:44:52.858Z,99.99
2023-02-03T01:45:53.017Z,99.99
2023-02-03T01:46:52.865Z,99.99
2023-02-03T01:47:52.891Z,99.99
2023-02-03T01:48:52.871Z,99.99
2023-02-03T01:49:52.887Z,99.99
2023-02-03T01:50:52.892Z,99.99
2023-02-03T01:51:52.899Z,99.99
2023-02-03T01:52:52.857Z,99.99
2023-02-03T01:53:52.857Z,99.99
2023-02-03T01:54:52.881Z,99.99
2023-02-03T01:55:52.823Z,99.99
2023-02-03T01:56:52.911Z,99.99
2023-02-03T01:57:52.857Z,99.99
2023-02-03T01:58:52.823Z,99.99
2023-02-03T01:59:52.889Z,99.99
2023-02-03T02:00:52.851Z,99.99
2023-02-03T02:01:52.884Z,99.99
2023-02-03T02:02:52.854Z,99.99
2023-02-03T02:03:52.820Z,99.99
2023-02-03T02:04:52.833Z,99.99
2023-02-03T02:05:52.806Z,99.99
2023-02-03T02:06:52.782Z,99.99
2023-02-03T02:07:52.781Z,99.99
2023-02-03T02:08:52.797Z,99.99
2023-02-03T02:09:52.743Z,99.99
2023-02-03T02:10:52.745Z,99.99
2023-02-03T02:11:52.737Z,99.99
2023-02-03T02:12:52.745Z,99.99
2023-02-03T02:13:52.753Z,99.99
2023-02-03T02:14:52.909Z,99.99
2023-02-03T02:15:53.056Z,99.99
2023-02-03T02:16:52.943Z,99.99
2023-02-03T02:17:52.774Z,99.99
2023-02-03T02:18:52.780Z,99.99
2023-02-03T02:19:52.726Z,99.99
2023-02-03T02:23:30.680Z,99.99
2023-02-03T02:24:44.181Z,99.99
2023-02-03T02:27:25.293Z,99.99
2023-02-03T02:28:25.588Z,99.99
2023-02-03T02:33:39.882Z,99.99
2023-02-03T02:34:39.770Z,99.99
2023-02-03T02:38:06.714Z,99.99
2023-02-03T02:39:06.422Z,99.99
2023-02-03T02:40:06.230Z,99.99
2023-02-03T02:41:06.276Z,99.99
2023-02-03T02:42:06.431Z,99.99
2023-02-03T02:53:16.059Z,99.99
2023-02-03T02:54:13.746Z,99.99
2023-02-03T03:33:03.490Z,99.99
2023-02-03T03:34:02.594Z,99.99
2023-02-03T03:35:02.648Z,99.99
2023-02-03T03:43:05.254Z,99.99
2023-02-03T03:44:05.173Z,99.99
2023-02-03T03:45:05.255Z,99.99
2023-02-03T03:46:04.671Z,99.99
2023-02-03T03:47:04.475Z,99.99
2023-02-03T03:48:05.831Z,99.99
2023-02-03T03:49:04.578Z,99.99
2023-02-03T03:50:05.672Z,99.99
2023-02-03T03:51:04.328Z,99.99
2023-02-03T03:52:04.431Z,99.99
2023-02-03T03:53:05.192Z,99.99
2023-02-03T03:54:04.322Z,99.99
2023-02-03T03:55:04.350Z,99.99
2023-02-03T03:56:04.310Z,99.99
2023-02-03T03:57:04.292Z,99.99
2023-02-03T03:58:04.325Z,99.99
2023-02-03T03:59:04.263Z,99.99
2023-02-03T04:00:04.352Z,99.99
2023-02-03T04:01:04.347Z,99.99
2023-02-03T04:02:04.465Z,99.99
2023-02-03T04:03:04.392Z,99.99
2023-02-03T04:04:04.241Z,99.99
2023-02-03T04:05:04.343Z,99.99
2023-02-03T04:17:23.336Z,99.99
2023-02-03T04:18:23.862Z,99.99
2023-02-03T04:28:47.350Z,99.99
2023-02-03T04:29:47.193Z,99.99
2023-02-03T04:30:46.815Z,99.99
2023-02-03T04:31:46.522Z,99.99
2023-02-03T04:41:12.820Z,99.99
2023-02-03T04:42:12.769Z,99.99
2023-02-03T04:43:12.821Z,99.99
2023-02-03T04:44:12.119Z,99.99
2023-02-03T04:45:11.995Z,99.99
2023-02-03T04:46:12.772Z,99.99
2023-02-03T04:47:12.746Z,99.99
2023-02-03T04:48:11.880Z,99.99
2023-02-03T04:49:11.897Z,99.99
2023-02-03T04:50:11.867Z,99.99
2023-02-03T04:53:52.346Z,99.99
2023-02-03T05:01:53.408Z,99.99
2023-02-03T05:02:53.366Z,99.99
2023-02-03T05:03:53.401Z,99.99
2023-02-03T05:04:53.215Z,99.99
2023-02-03T05:05:53.129Z,99.99
2023-02-03T05:06:52.478Z,99.99
2023-02-03T05:07:53.282Z,99.99
2023-02-03T05:08:53.282Z,99.99
2023-02-03T05:09:52.457Z,99.99
2023-02-03T05:10:52.436Z,99.99
2023-02-03T05:11:52.477Z,99.99
2023-02-03T05:12:52.501Z,99.99
2023-02-03T05:13:52.434Z,99.99
2023-02-03T05:14:52.412Z,99.99
2023-02-03T05:15:52.413Z,99.99
2023-02-03T05:16:52.440Z,99.99
2023-02-03T05:33:16.014Z,99.99
2023-02-03T05:34:15.878Z,99.99
2023-02-03T05:35:16.501Z,99.99
2023-02-03T05:36:16.672Z,99.99
2023-02-03T05:37:15.803Z,99.99
2023-02-03T05:46:26.702Z,99.99
2023-02-03T06:20:07.662Z,99.99
2023-02-03T06:28:41.605Z,99.99
2023-02-03T06:29:41.577Z,99.99
2023-02-03T06:30:40.913Z,99.99
2023-02-03T06:31:40.833Z,99.99
2023-02-03T06:32:53.184Z,99.99
2023-02-03T06:33:41.138Z,99.99
2023-02-03T06:34:41.192Z,99.99
2023-02-03T06:39:43.265Z,99.99
2023-02-03T06:40:43.219Z,99.99
2023-02-03T06:41:43.148Z,99.99
2023-02-03T06:42:42.360Z,99.99
2023-02-03T06:43:42.327Z,99.99
2023-02-03T06:44:43.147Z,99.99
2023-02-03T06:45:42.751Z,99.99
2023-02-03T06:48:32.441Z,99.99
2023-02-03T06:54:02.143Z,99.99
2023-02-03T06:55:01.507Z,99.99
2023-02-03T06:56:01.716Z,99.99
2023-02-03T06:57:01.508Z,99.99
2023-02-03T06:58:01.558Z,99.99
2023-02-03T06:59:01.497Z,99.99
2023-02-03T07:00:01.492Z,99.99
2023-02-03T07:01:01.495Z,99.99
2023-02-03T07:02:01.569Z,99.99
2023-02-03T07:03:01.522Z,99.99
2023-02-03T07:04:01.612Z,99.99
2023-02-03T07:05:01.480Z,99.99
2023-02-03T07:06:01.476Z,99.99
2023-02-03T07:07:01.556Z,99.99
2023-02-03T07:08:01.501Z,99.99
2023-02-03T07:09:01.972Z,99.99
2023-02-03T07:10:01.479Z,99.99
2023-02-03T07:11:01.700Z,99.99
2023-02-03T07:13:45.152Z,99.99
2023-02-03T07:14:45.115Z,99.99
2023-02-03T07:15:45.160Z,99.99
2023-02-03T07:16:45.109Z,99.99
2023-02-03T07:17:45.106Z,99.99
2023-02-03T07:18:47.871Z,99.99
2023-02-03T07:19:46.095Z,99.99
2023-02-03T07:20:45.121Z,99.99
2023-02-03T07:21:45.106Z,99.99
2023-02-03T07:22:45.096Z,99.99
2023-02-03T07:23:45.090Z,99.99
2023-02-03T07:24:45.089Z,99.99
2023-02-03T07:25:45.135Z,99.99
2023-02-03T07:26:45.077Z,99.99
2023-02-03T07:27:45.081Z,99.99
2023-02-03T07:28:45.070Z,99.99
2023-02-03T07:29:45.057Z,99.99
2023-02-03T07:30:45.200Z,99.99
2023-02-03T07:31:45.155Z,99.99
2023-02-03T07:32:45.058Z,99.99
2023-02-03T07:33:45.831Z,99.99
2023-02-03T07:34:45.049Z,99.99
2023-02-03T07:35:45.049Z,99.99
2023-02-03T07:36:45.103Z,99.99
2023-02-03T07:37:45.038Z,99.99
2023-02-03T07:38:45.049Z,99.99
2023-02-03T07:39:45.033Z,99.99
2023-02-03T07:40:45.025Z,99.99
2023-02-03T07:41:45.080Z,99.99
2023-02-03T07:42:45.064Z,99.99
2023-02-03T07:43:45.032Z,99.99
2023-02-03T07:44:45.047Z,99.99
2023-02-03T07:45:45.014Z,99.99
2023-02-03T07:46:45.128Z,99.99
2023-02-03T07:47:45.004Z,99.99
2023-02-03T07:48:44.995Z,99.99
2023-02-03T07:49:44.999Z,99.99
2023-02-03T07:50:44.989Z,99.99
2023-02-03T07:51:45.004Z,99.99
2023-02-03T07:52:44.990Z,99.99
2023-02-03T07:53:44.984Z,99.99
2023-02-03T07:54:44.985Z,99.99
2023-02-03T07:55:44.986Z,99.99
2023-02-03T07:56:45.119Z,99.99
2023-02-03T07:57:44.977Z,99.99
2023-02-03T07:58:44.985Z,99.99
2023-02-03T07:59:44.971Z,99.99
2023-02-03T08:00:44.949Z,99.99
2023-02-03T08:01:45.013Z,99.99
2023-02-03T08:02:44.985Z,99.99
2023-02-03T08:03:45.004Z,99.99
2023-02-03T08:04:44.991Z,99.99
2023-02-03T08:05:44.945Z,99.99
2023-02-03T08:06:44.946Z,99.99
2023-02-03T08:07:44.946Z,99.99
2023-02-03T08:08:44.955Z,99.99
2023-02-03T08:09:44.969Z,99.99
2023-02-03T08:10:44.921Z,99.99
2023-02-03T08:11:44.933Z,99.99
2023-02-03T08:12:45.431Z,99.99
2023-02-03T08:13:45.714Z,99.99
2023-02-03T08:14:44.926Z,99.99
2023-02-03T08:15:45.142Z,99.99
2023-02-03T08:16:44.932Z,99.99
2023-02-03T08:17:44.935Z,99.99
2023-02-03T08:18:44.925Z,99.99
2023-02-03T08:19:44.935Z,99.99
2023-02-03T08:20:44.892Z,99.99
2023-02-03T08:21:44.903Z,99.99
2023-02-03T08:22:44.900Z,99.99
2023-02-03T08:23:44.899Z,99.99
2023-02-03T08:24:44.901Z,99.99
2023-02-03T08:25:44.899Z,99.99
2023-02-03T08:26:44.877Z,99.99
2023-02-03T08:27:44.896Z,99.99
2023-02-03T08:28:44.879Z,99.99
2023-02-03T08:29:44.878Z,99.99
2023-02-03T08:30:44.860Z,99.99
2023-02-03T08:31:44.905Z,99.99
2023-02-03T08:32:44.855Z,99.99
2023-02-03T08:33:44.853Z,99.99
2023-02-03T08:34:44.872Z,99.99
2023-02-03T08:35:44.853Z,99.99
2023-02-03T08:36:44.838Z,99.99
2023-02-03T08:37:44.850Z,99.99
2023-02-03T08:38:44.833Z,99.99
2023-02-03T08:39:44.841Z,99.99
2023-02-03T08:40:44.824Z,99.99
2023-02-03T08:41:44.864Z,99.99
2023-02-03T08:42:44.842Z,99.99
2023-02-03T08:43:44.832Z,99.99
2023-02-03T08:44:44.845Z,99.99
2023-02-03T08:45:44.832Z,99.99
2023-02-03T08:46:44.816Z,99.99
2023-02-03T08:47:44.800Z,99.99
2023-02-03T08:48:44.816Z,99.99
2023-02-03T08:49:44.809Z,99.99
2023-02-03T08:50:44.830Z,99.99
2023-02-03T08:51:44.810Z,99.99
2023-02-03T08:52:44.785Z,99.99
2023-02-03T08:53:44.786Z,99.99
2023-02-03T08:54:44.828Z,99.99
2023-02-03T08:55:44.808Z,99.99
2023-02-03T08:56:44.792Z,99.99
2023-02-03T08:57:44.798Z,99.99
2023-02-03T08:58:44.805Z,99.99
2023-02-03T08:59:44.792Z,99.99
2023-02-03T09:00:44.844Z,99.99
2023-02-03T09:01:44.839Z,99.99
2023-02-03T09:02:44.837Z,99.99
2023-02-03T09:03:44.802Z,99.99
2023-02-03T09:04:44.791Z,99.99
2023-02-03T09:05:44.835Z,99.99
2023-02-03T09:06:44.826Z,99.99
2023-02-03T09:07:44.825Z,99.99
2023-02-03T09:08:44.774Z,99.99
2023-02-03T09:09:44.763Z,99.99
2023-02-03T09:10:44.765Z,99.99
2023-02-03T09:11:44.775Z,99.99
2023-02-03T09:12:44.730Z,99.99
2023-02-03T09:13:44.740Z,99.99
2023-02-03T09:14:44.728Z,99.99
2023-02-03T09:15:44.751Z,99.99
2023-02-03T09:16:44.798Z,99.99
2023-02-03T09:17:44.725Z,99.99
2023-02-03T09:18:44.707Z,99.99
2023-02-03T09:19:44.741Z,99.99
2023-02-03T09:20:44.713Z,99.99
2023-02-03T09:21:48.273Z,99.99
2023-02-03T09:22:44.707Z,99.99
2023-02-03T09:23:44.705Z,99.99
2023-02-03T09:24:44.702Z,99.99
2023-02-03T09:25:47.844Z,99.99
2023-02-03T09:26:44.715Z,99.99
2023-02-03T09:27:44.735Z,99.99
2023-02-03T09:28:44.685Z,99.99
2023-02-03T09:29:44.707Z,99.99
2023-02-03T09:30:44.721Z,99.99
2023-02-03T09:31:44.699Z,99.99
2023-02-03T09:32:44.687Z,99.99
2023-02-03T09:33:44.668Z,99.99
2023-02-03T09:34:44.672Z,99.99
2023-02-03T09:35:44.669Z,99.99
2023-02-03T09:36:44.681Z,99.99
2023-02-03T09:37:44.672Z,99.99
2023-02-03T09:38:44.689Z,99.99
2023-02-03T09:39:44.657Z,99.99
2023-02-03T09:40:44.637Z,99.99
2023-02-03T09:41:44.647Z,99.99
2023-02-03T09:42:44.644Z,99.99
2023-02-03T09:43:44.658Z,99.99
2023-02-03T09:44:44.632Z,99.99
2023-02-03T09:45:44.661Z,99.99
2023-02-03T09:46:44.633Z,99.99
2023-02-03T09:47:44.652Z,99.99
2023-02-03T09:48:44.620Z,99.99
2023-02-03T09:49:44.642Z,99.99
2023-02-03T09:50:44.607Z,99.99
2023-02-03T09:51:44.611Z,99.99
2023-02-03T09:52:44.611Z,99.99
2023-02-03T09:53:44.627Z,99.99
2023-02-03T09:54:44.608Z,99.99
2023-02-03T09:55:44.617Z,99.99
2023-02-03T09:56:44.605Z,99.99
2023-02-03T09:57:44.611Z,99.99
2023-02-03T09:58:44.607Z,99.99
2023-02-03T09:59:44.602Z,99.99
2023-02-03T10:00:44.688Z,99.99
2023-02-03T10:01:44.595Z,99.99
2023-02-03T10:02:44.609Z,99.99
2023-02-03T10:03:44.654Z,99.99
2023-02-03T10:04:44.574Z,99.99
2023-02-03T10:05:44.577Z,99.99
2023-02-03T10:06:44.588Z,99.99
2023-02-03T10:07:44.580Z,99.99
2023-02-03T10:08:44.564Z,99.99
2023-02-03T10:09:44.586Z,99.99
2023-02-03T10:10:44.600Z,99.99
2023-02-03T10:11:44.587Z,99.99
2023-02-03T10:12:44.560Z,99.99
2023-02-03T10:15:45.710Z,99.99
2023-02-03T10:16:45.741Z,99.99
2023-02-03T10:17:45.630Z,99.99
2023-02-03T10:18:45.888Z,99.99
2023-02-03T10:19:45.613Z,99.99
2023-02-03T10:20:45.607Z,99.99
2023-02-03T10:21:45.671Z,99.99
2023-02-03T10:22:45.613Z,99.99
2023-02-03T10:23:45.582Z,99.99
2023-02-03T10:24:45.591Z,99.99
2023-02-03T10:25:45.586Z,99.99
2023-02-03T10:26:45.593Z,99.99
2023-02-03T10:27:45.703Z,99.99
2023-02-03T10:28:45.610Z,99.99
2023-02-03T10:29:45.601Z,99.99
2023-02-03T10:30:46.011Z,99.99
2023-02-03T10:31:45.673Z,99.99
2023-02-03T10:32:45.564Z,99.99
2023-02-03T10:33:45.826Z,99.99
2023-02-03T10:34:45.579Z,99.99
2023-02-03T10:35:45.755Z,99.99
2023-02-03T10:36:45.608Z,99.99
2023-02-03T10:37:45.612Z,99.99
2023-02-03T10:38:45.555Z,99.99
2023-02-03T10:39:45.566Z,99.99
2023-02-03T10:40:45.622Z,99.99
2023-02-03T10:41:45.556Z,99.99
2023-02-03T10:42:45.608Z,99.99
2023-02-03T10:43:45.535Z,99.99
2023-02-03T10:44:45.540Z,99.99
2023-02-03T10:45:45.554Z,99.99
2023-02-03T10:46:45.604Z,99.99
2023-02-03T10:47:45.538Z,99.99
2023-02-03T10:48:45.547Z,99.99
2023-02-03T10:49:45.572Z,99.99
2023-02-03T10:50:45.504Z,99.99
2023-02-03T10:51:45.528Z,99.99
2023-02-03T10:52:45.514Z,99.99
2023-02-03T10:53:45.537Z,99.99
2023-02-03T10:54:45.504Z,99.99
2023-02-03T10:55:45.541Z,99.99
2023-02-03T10:56:45.508Z,99.99
2023-02-03T10:57:45.522Z,99.99
2023-02-03T10:58:45.491Z,99.99
2023-02-03T10:59:45.530Z,99.99
2023-02-03T11:00:45.510Z,99.99
2023-02-03T11:01:45.522Z,99.99
2023-02-03T11:02:45.536Z,99.99
2023-02-03T11:03:45.493Z,99.99
2023-02-03T11:04:45.494Z,99.99
2023-02-03T11:05:55.578Z,99.99
2023-02-03T11:06:45.469Z,99.99
2023-02-03T11:07:45.555Z,99.99
2023-02-03T11:08:45.481Z,99.99
2023-02-03T11:09:45.476Z,99.99
2023-02-03T11:10:45.499Z,99.99
2023-02-03T11:11:45.465Z,99.99
2023-02-03T11:12:45.488Z,99.99
2023-02-03T11:13:45.473Z,99.99
2023-02-03T11:14:45.462Z,99.99
2023-02-03T11:15:45.623Z,99.99
2023-02-03T11:16:45.469Z,99.99
2023-02-03T11:17:45.454Z,99.99
2023-02-03T11:18:45.442Z,99.99
2023-02-03T11:19:45.467Z,99.99
2023-02-03T11:20:45.523Z,99.99
2023-02-03T11:21:45.432Z,99.99
2023-02-03T11:22:56.419Z,99.99
2023-02-03T11:23:45.420Z,99.99
2023-02-03T11:24:45.417Z,99.99
2023-02-03T11:25:45.456Z,99.99
2023-02-03T11:26:45.415Z,99.99
2023-02-03T11:27:45.460Z,99.99
2023-02-03T11:28:45.439Z,99.99
2023-02-03T11:29:45.412Z,99.99
2023-02-03T11:30:45.505Z,99.99
2023-02-03T11:31:45.491Z,99.99
2023-02-03T11:32:45.426Z,99.99
2023-02-03T11:33:45.388Z,99.99
2023-02-03T11:34:45.406Z,99.99
2023-02-03T11:35:45.383Z,99.99
2023-02-03T11:36:45.410Z,99.99
2023-02-03T11:37:45.419Z,99.99
2023-02-03T11:38:45.376Z,99.99
2023-02-03T11:39:54.451Z,99.99
2023-02-03T11:40:45.404Z,99.99
2023-02-03T11:41:45.418Z,99.99
2023-02-03T11:42:45.379Z,99.99
2023-02-03T11:43:45.362Z,99.99
2023-02-03T11:44:45.404Z,99.99
2023-02-03T11:45:45.375Z,99.99
2023-02-03T11:46:45.404Z,99.99
2023-02-03T11:47:45.359Z,99.99
2023-02-03T11:48:45.394Z,99.99
2023-02-03T11:49:45.451Z,99.99
2023-02-03T11:50:45.356Z,99.99
2023-02-03T11:51:45.356Z,99.99
2023-02-03T11:52:45.353Z,99.99
2023-02-03T11:53:56.683Z,99.99
2023-02-03T11:54:45.356Z,99.99
2023-02-03T11:55:46.363Z,99.99
2023-02-03T11:56:45.347Z,99.99
2023-02-03T11:57:47.156Z,99.99
2023-02-03T11:58:45.505Z,99.99
2023-02-03T11:59:45.331Z,99.99
2023-02-03T12:00:46.366Z,99.99
2023-02-03T12:01:45.409Z,99.99
2023-02-03T12:02:46.083Z,99.99
2023-02-03T12:03:45.333Z,99.99
2023-02-03T12:06:15.889Z,99.99
2023-02-03T12:06:45.573Z,99.99
2023-02-03T12:07:45.325Z,99.99
2023-02-03T12:08:51.403Z,99.99
2023-02-03T12:09:45.365Z,99.99
2023-02-03T12:10:45.890Z,99.99
2023-02-03T12:11:45.380Z,99.99
2023-02-03T12:12:45.299Z,99.99
2023-02-03T12:13:45.295Z,99.99
2023-02-03T12:14:45.323Z,99.99
2023-02-03T12:15:45.375Z,99.99
2023-02-03T12:16:45.435Z,99.99
2023-02-03T12:17:45.354Z,99.99
2023-02-03T12:19:01.077Z,99.99
2023-02-03T12:19:47.418Z,99.99
2023-02-03T12:20:47.900Z,99.99
2023-02-03T12:21:46.188Z,99.99
2023-02-03T12:25:55.366Z,98.99
2023-02-03T12:26:34.369Z,99.13
2023-02-03T12:27:34.276Z,99.47
2023-02-03T12:28:34.817Z,97.85
2023-02-03T12:29:36.540Z,97.42
2023-02-03T12:30:34.367Z,97.94
2023-02-03T12:31:34.452Z,98.13
2023-02-03T12:32:34.314Z,98.75
2023-02-03T12:33:34.290Z,97.71
2023-02-03T12:34:34.412Z,96.13
2023-02-03T12:35:34.318Z,95.70
2023-02-03T12:36:34.319Z,95.17
2023-02-03T12:37:34.325Z,95.27
2023-02-03T12:38:34.306Z,94.65
2023-02-03T12:39:34.315Z,94.51
2023-02-03T12:43:39.527Z,93.88
2023-02-03T12:44:38.042Z,95.12
2023-02-03T12:45:38.050Z,95.22
2023-02-03T12:46:39.899Z,96.13
2023-02-03T12:47:43.470Z,96.51
2023-02-03T12:48:40.892Z,98.03
2023-02-03T12:49:37.979Z,97.66
2023-02-03T12:50:41.451Z,97.99
2023-02-03T12:51:38.936Z,97.99
2023-02-03T12:52:38.917Z,97.75
2023-02-03T12:53:40.317Z,98.13
2023-02-03T12:54:43.389Z,96.75
2023-02-03T13:01:08.408Z,99.18
2023-02-03T13:02:00.322Z,99.32
2023-02-03T13:02:59.995Z,98.27
2023-02-03T13:04:02.639Z,98.74
2023-02-03T13:11:18.717Z,99.99
2023-02-03T13:11:40.646Z,99.99
2023-02-03T13:12:37.043Z,99.99
2023-02-03T13:19:04.530Z,99.99
2023-02-03T13:23:39.049Z,99.99
2023-02-03T13:25:26.955Z,99.99
2023-02-03T13:26:27.484Z,99.99
2023-02-03T13:27:29.485Z,99.99
2023-02-03T13:28:28.999Z,99.99
2023-02-03T13:29:27.459Z,99.99
2023-02-03T13:30:29.806Z,99.99
2023-02-03T13:31:29.568Z,99.99
2023-02-03T13:32:28.972Z,99.99
2023-02-03T13:33:33.978Z,99.99
2023-02-03T13:34:29.463Z,99.99
2023-02-03T13:35:33.553Z,99.99
2023-02-03T13:36:25.955Z,99.99
2023-02-03T13:40:10.255Z,99.99
2023-02-03T13:41:08.802Z,99.99
2023-02-03T13:42:08.830Z,99.99
2023-02-03T13:43:08.844Z,99.99
2023-02-03T13:44:08.767Z,99.99
2023-02-03T13:45:08.768Z,99.99
2023-02-03T13:46:09.249Z,99.99
2023-02-03T13:47:08.784Z,99.99
2023-02-03T13:48:08.769Z,99.99
2023-02-03T13:49:08.751Z,99.99
2023-02-03T13:50:08.779Z,99.99
2023-02-03T13:51:08.748Z,99.99
2023-02-03T13:52:08.752Z,99.99
2023-02-03T13:53:08.742Z,99.99
2023-02-03T13:54:08.738Z,99.99
2023-02-03T13:55:08.762Z,99.99
2023-02-03T13:56:08.807Z,99.99
2023-02-03T13:57:08.715Z,99.99
2023-02-03T13:58:08.745Z,99.99
2023-02-03T13:59:08.708Z,99.99
2023-02-03T14:00:08.746Z,99.99
2023-02-03T14:01:08.736Z,99.99
2023-02-03T14:02:08.699Z,99.99
2023-02-03T14:03:08.768Z,99.99
2023-02-03T14:04:08.826Z,99.99
2023-02-03T14:05:08.741Z,99.99
2023-02-03T14:06:08.717Z,99.99
2023-02-03T14:07:08.685Z,99.99
2023-02-03T14:08:08.712Z,99.99
2023-02-03T14:09:08.698Z,99.99
2023-02-03T14:10:08.737Z,99.99
2023-02-03T14:11:08.721Z,99.99
2023-02-03T14:12:08.755Z,99.99
2023-02-03T14:13:08.669Z,99.99
2023-02-03T14:14:08.711Z,99.99
2023-02-03T14:15:08.668Z,99.99
2023-02-03T14:16:08.694Z,99.99
2023-02-03T14:17:08.750Z,99.99
2023-02-03T14:18:08.644Z,99.99
2023-02-03T14:19:08.653Z,99.99
2023-02-03T14:20:08.658Z,99.99
2023-02-03T14:21:08.689Z,99.99
2023-02-03T14:22:08.766Z,99.99
2023-02-03T14:23:08.641Z,99.99
2023-02-03T14:24:08.629Z,99.99
2023-02-03T14:25:08.647Z,99.99
2023-02-03T14:26:08.655Z,99.99
2023-02-03T14:27:08.618Z,99.99
2023-02-03T14:28:08.748Z,99.99
2023-02-03T14:29:08.628Z,99.99
2023-02-03T14:30:08.626Z,99.99
2023-02-03T14:31:08.776Z,99.99
2023-02-03T14:32:08.683Z,99.99
2023-02-03T14:33:08.617Z,99.99
2023-02-03T14:34:08.609Z,99.99
2023-02-03T14:35:08.610Z,99.99
2023-02-03T14:36:08.644Z,99.99
2023-02-03T14:37:08.607Z,99.99
2023-02-03T14:38:08.665Z,99.99
2023-02-03T14:39:08.601Z,99.99
2023-02-03T14:40:11.303Z,99.99
2023-02-03T14:41:08.590Z,99.99
2023-02-03T14:42:08.608Z,99.99
2023-02-03T14:43:11.496Z,99.99
2023-02-03T14:44:08.595Z,99.99
2023-02-03T14:45:08.588Z,99.99
2023-02-03T14:46:08.646Z,99.99
2023-02-03T14:47:08.600Z,99.99
2023-02-03T14:48:08.653Z,99.99
2023-02-03T14:49:08.573Z,99.99
2023-02-03T14:50:08.657Z,99.99
2023-02-03T14:51:08.569Z,99.99
2023-02-03T14:52:08.571Z,99.99
2023-02-03T14:53:08.564Z,99.99
2023-02-03T14:54:08.696Z,99.99
2023-02-03T14:55:08.583Z,99.99
2023-02-03T14:56:08.560Z,99.99
2023-02-03T14:57:08.561Z,99.99
2023-02-03T14:58:08.579Z,99.99
2023-02-03T14:59:08.533Z,99.99
2023-02-03T15:00:08.569Z,99.99
2023-02-03T15:01:08.618Z,99.99
2023-02-03T15:02:08.528Z,99.99
2023-02-03T15:03:08.530Z,99.99
2023-02-03T15:04:08.529Z,99.99
2023-02-03T15:05:08.577Z,99.99
2023-02-03T15:06:08.518Z,99.99
2023-02-03T15:07:08.540Z,99.99
2023-02-03T15:08:08.570Z,99.99
2023-02-03T15:09:08.504Z,99.99
2023-02-03T15:10:08.507Z,99.99
2023-02-03T15:11:08.509Z,99.99
2023-02-03T15:12:08.498Z,99.99
2023-02-03T15:13:08.711Z,99.99
2023-02-03T15:14:08.500Z,99.99
2023-02-03T15:15:08.497Z,99.99
2023-02-03T15:16:08.598Z,99.99
2023-02-03T15:17:08.490Z,99.99
2023-02-03T15:18:08.502Z,99.99
2023-02-03T15:19:08.495Z,99.99
2023-02-03T15:20:08.478Z,99.99
2023-02-03T15:21:08.477Z,99.99
2023-02-03T15:22:08.486Z,99.99
2023-02-03T15:23:08.459Z,99.99
2023-02-03T15:24:08.487Z,99.99
2023-02-03T15:25:08.490Z,99.99
2023-02-03T15:26:08.474Z,99.99
2023-02-03T15:27:08.476Z,99.99
2023-02-03T15:28:08.546Z,99.99
2023-02-03T15:29:08.450Z,99.99
2023-02-03T15:30:08.479Z,99.99
2023-02-03T15:31:08.534Z,99.99
2023-02-03T15:32:08.934Z,99.99
2023-02-03T15:33:08.457Z,99.99
2023-02-03T15:34:08.449Z,99.99
2023-02-03T15:35:08.477Z,99.99
2023-02-03T15:36:08.447Z,99.99
2023-02-03T15:37:08.439Z,99.99
2023-02-03T15:38:08.443Z,99.99
2023-02-03T15:39:08.429Z,99.99
2023-02-03T15:40:08.482Z,99.99
2023-02-03T15:41:08.446Z,99.99
2023-02-03T15:42:08.420Z,99.99
2023-02-03T15:43:08.412Z,99.99
2023-02-03T15:44:08.409Z,99.99
2023-02-03T15:45:08.407Z,99.99
2023-02-03T15:46:08.458Z,99.99
2023-02-03T15:47:08.473Z,99.99
2023-02-03T15:48:08.444Z,99.99
2023-02-03T15:49:08.438Z,99.99
2023-02-03T15:50:08.411Z,99.99
2023-02-03T15:51:08.377Z,99.99
2023-02-03T15:52:08.397Z,99.99
2023-02-03T15:53:08.378Z,99.99
2023-02-03T15:54:08.368Z,99.99
2023-02-03T15:55:08.370Z,99.99
2023-02-03T15:56:08.380Z,99.99
2023-02-03T15:57:08.387Z,99.99
2023-02-03T15:58:08.363Z,99.99
2023-02-03T15:59:08.372Z,99.99
2023-02-03T16:00:08.365Z,99.99
2023-02-03T16:01:08.380Z,99.99
2023-02-03T16:02:08.427Z,99.99
2023-02-03T16:03:08.442Z,99.99
2023-02-03T16:04:08.339Z,99.99
2023-02-03T16:05:08.337Z,99.99
2023-02-03T16:06:08.364Z,99.99
2023-02-03T16:07:08.326Z,99.99
2023-02-03T16:08:08.326Z,99.99
2023-02-03T16:09:08.391Z,99.99
2023-02-03T16:10:08.345Z,99.99
2023-02-03T16:11:08.349Z,99.99
2023-02-03T16:12:08.321Z,99.99
2023-02-03T16:13:08.353Z,99.99
2023-02-03T16:14:08.346Z,99.99
2023-02-03T16:15:08.316Z,99.99
2023-02-03T16:16:08.430Z,99.99
2023-02-03T16:17:08.320Z,99.99
2023-02-03T16:18:08.339Z,99.99
2023-02-03T16:19:08.308Z,99.99
2023-02-03T16:20:08.306Z,99.99
2023-02-03T16:21:08.303Z,99.99
2023-02-03T16:22:08.344Z,99.99
2023-02-03T16:23:08.369Z,99.99
2023-02-03T16:24:08.320Z,99.99
2023-02-03T16:25:08.314Z,99.99
2023-02-03T16:26:08.307Z,99.99